• Join FlightAware (Why Join?)
  • Login
  • US Flag 
04:48PM EDT


 

Airport Tracker/Info


-or-


 

Live Flight TrackerFlight Track Log ✈ DAL1937 ✈ 27-May-2013 ✈ KBWI - KDTW

Flight Track Log - Related Links

Times and Time Zones

All times are in EDT time to prevent confusion due to time zone crossing. See the DAL1937 flight status page for this flight to view local times or setup timezone preferences in your user account.

Time Position Orientation Groundspeed Altitude Reporting Facility
EDT Latitude Longitude Course Direction KTS MPH feet Rate Location/Type
06:17AM 39.1833 -76.7167 322° Northwest 188 216 1,500  Level Potomac TRACON
06:17AM 39.2000 -76.8000 284° West 245 282 3,800 3,000 Climbing Potomac TRACON
06:18AM 39.2167 -76.8667 288° West 250 288 6,900 2,940 Climbing Potomac TRACON
06:19AM 39.2000 -77.0351 270° West  Level FlightAware Approximate
06:19AM 39.2500 -76.9667 293° West 265 305 9,400  Level Potomac TRACON
06:20AM 39.2081 -77.1541 339° North  Level FlightAware Approximate
06:20AM 39.2833 -77.0500 297° West 288 331 11,200  Level Potomac TRACON
06:21AM 39.2892 -77.2225 322° Northwest  Level FlightAware Approximate
06:22AM 39.3665 -77.2998 322° Northwest  Level FlightAware Approximate
06:22AM 39.3539 -77.2797 292° West 370 426 14,600  Level Washington Center
06:23AM 39.3958 -77.4097 293° West 384 442 17,300 2,340 Climbing Washington Center
06:24AM 39.4417 -77.5453 294° West 403 464 19,300 1,920 Climbing Washington Center
06:26AM 39.5044 -77.7447 292° West 413 475 22,200 1,740 Climbing Cleveland Center
06:27AM 39.5453 -77.8831 291° West 413 475 23,800 1,920 Climbing Cleveland Center
06:28AM 39.5858 -78.0214 291° West 418 481 26,100 1,980 Climbing Cleveland Center
06:29AM 39.6264 -78.1575 291° West 418 481 27,800 1,800 Climbing Cleveland Center
06:30AM 39.6667 -78.2908 291° West 406 467 29,800 1,500 Climbing Cleveland Center
06:31AM 39.7047 -78.4217 291° West 400 460 30,900 1,140 Climbing Cleveland Center
06:32AM 39.7447 -78.5528 292° West 395 455 32,100 1,020 Climbing Cleveland Center
06:33AM 39.8011 -78.6808 300° West 384 442 33,000 900 Climbing Cleveland Center
06:34AM 39.8553 -78.7983 301° West 379 436 34,000 480 Climbing Cleveland Center
06:35AM 39.9089 -78.9106 302° West 374 430 34,000  Level Cleveland Center
06:36AM 39.9606 -79.0147 303° West 374 430 34,000  Level Cleveland Center
06:37AM 40.0122 -79.1331 300° West 381 438 34,000  Level Cleveland Center
06:38AM 40.0658 -79.2567 300° West 375 432 34,000  Level Cleveland Center
06:39AM 40.1169 -79.3614 303° West 376 433 34,000  Level Cleveland Center
06:40AM 40.1703 -79.4744 302° West 376 433 34,000  Level Cleveland Center
06:41AM 40.2233 -79.5906 301° West 376 433 34,000  Level Cleveland Center
06:42AM 40.2764 -79.7042 301° West 376 433 34,000  Level Cleveland Center
06:43AM 40.3294 -79.8178 302° West 376 433 34,000  Level Cleveland Center
06:44AM 40.3800 -79.9317 300° West 371 427 34,000  Level Cleveland Center
06:45AM 40.4350 -80.0622 299° West 371 427 34,000 -600 Level Cleveland Center
06:46AM 40.4875 -80.1792 301° West 371 427 32,900 -1,800 Descending Cleveland Center
06:47AM 40.5422 -80.2989 301° West 371 427 30,400 -1,500 Descending Cleveland Center
06:48AM 40.5944 -80.4053 303° West 377 434 30,000 -240 Descending Cleveland Center
06:49AM 40.6531 -80.5447 299° West 382 440 30,000  Level Cleveland Center
06:50AM 40.7072 -80.6653 301° West 388 447 30,000  Level Cleveland Center
06:51AM 40.7611 -80.7750 303° West 388 447 30,000  Level Cleveland Center
06:52AM 40.8150 -80.8986 300° West 388 447 30,000  Level Cleveland Center
06:53AM 40.8708 -81.0225 301° West 388 447 30,000  Level Cleveland Center
06:54AM 40.9286 -81.1631 299° West 398 458 30,000  Level Cleveland Center
06:55AM 40.9842 -81.2872 301° West 393 452 30,000  Level Cleveland Center
06:56AM 41.0378 -81.4117 300° West 393 452 30,000  Level Cleveland Center
06:57AM 41.0847 -81.5225 299° West 400 460 30,000  Level Cleveland Center
06:58AM 41.1442 -81.6475 302° West 400 460 30,000  Level Cleveland Center
06:59AM 41.1969 -81.7753 299° West 400 460 30,000 -300 Level Cleveland Center
07:00AM 41.2497 -81.9033 299° West 400 460 29,500 -2,040 Descending Cleveland Center
07:01AM 41.3025 -82.0286 299° West 400 460 26,000 -3,240 Descending Cleveland Center
07:02AM 41.3633 -82.1683 300° West 400 460 23,100 -2,880 Descending Cleveland Center
07:03AM 41.4303 -82.2808 308° West 390 449 20,300 -2,580 Descending Cleveland Center
07:04AM 41.4933 -82.3906 308° West 379 436 18,000 -2,340 Descending Cleveland Center
07:05AM 41.5583 -82.4978 309° West 372 428 15,700 -2,340 Descending Cleveland Center
07:06AM 41.6192 -82.5997 309° West 353 406 13,400 -1,860 Descending Cleveland Center
07:07AM 41.6778 -82.7044 307° West 364 419 12,000 -720 Descending Cleveland Center
07:08AM 41.7383 -82.8067 308° West 354 407 12,000  Level Cleveland Center
07:09AM 41.8094 -82.8897 319° Northwest 348 400 12,000  Level Cleveland Center
07:10AM 41.8828 -82.9761 319° Northwest 353 406 12,000  Level Cleveland Center
07:11AM 41.9561 -83.0656 318° Northwest 354 407 12,000  Level Cleveland Center
07:11AM 41.9561 -83.0656 318° Northwest 348 400 12,000  Level Cleveland Center
07:12AM 42.0231 -83.1408 320° Northwest 327 376 12,000 -360 Level Cleveland Center
07:13AM 42.0967 -83.2108 325° Northwest 326 375 11,300 -1,200 Descending Cleveland Center
07:14AM 42.1711 -83.2308 349° North 290 334 9,600 -2,160 Descending Cleveland Center
07:15AM 42.2597 -83.1867 20° North 282 325 6,800 -2,160 Descending Cleveland Center
07:16AM 42.3311 -83.1728 North 256 295 4,900 -1,500 Descending Cleveland Center
07:17AM 42.3481 -83.2439 288° West 187 215 3,700 -1,080 Descending Cleveland Center